createdAt,value
2022-08-17T00:00:49.494Z,3.35
2022-08-17T00:03:55.865Z,3.00
2022-08-17T00:06:59.425Z,3.22
2022-08-17T00:10:04.559Z,2.70
2022-08-17T00:13:10.184Z,2.83
2022-08-17T00:16:15.954Z,2.90
2022-08-17T00:19:22.883Z,3.22
2022-08-17T00:22:33.993Z,3.67
2022-08-17T00:25:41.907Z,2.85
2022-08-17T00:28:45.603Z,3.28
2022-08-17T00:31:49.659Z,3.13
2022-08-17T00:34:53.030Z,3.03
2022-08-17T00:37:56.390Z,2.92
2022-08-17T00:41:03.923Z,2.45
2022-08-17T00:44:07.890Z,2.63
2022-08-17T00:47:11.238Z,2.78
2022-08-17T00:50:16.819Z,3.08
2022-08-17T00:53:20.290Z,3.03
2022-08-17T00:56:30.699Z,3.33
2022-08-17T00:59:39.932Z,2.80
2022-08-17T01:02:46.277Z,2.75
2022-08-17T01:05:54.430Z,2.80
2022-08-17T01:08:59.389Z,2.60
2022-08-17T01:12:06.616Z,3.20
2022-08-17T01:15:12.765Z,2.47
2022-08-17T01:18:16.640Z,3.42
2022-08-17T01:21:27.287Z,3.83
2022-08-17T01:24:33.861Z,3.30
2022-08-17T01:27:38.776Z,3.53
2022-08-17T01:30:57.072Z,2.60
2022-08-17T01:34:08.457Z,3.50
2022-08-17T01:37:11.946Z,3.08
2022-08-17T01:40:23.747Z,3.65
2022-08-17T01:43:31.099Z,3.42
2022-08-17T01:46:36.992Z,3.38
2022-08-17T01:49:40.400Z,3.15
2022-08-17T01:52:44.750Z,3.85
2022-08-17T01:55:54.268Z,4.00
2022-08-17T01:58:58.184Z,3.20
2022-08-17T02:02:01.766Z,3.53
2022-08-17T02:05:05.631Z,3.38
2022-08-17T02:08:08.934Z,2.90
2022-08-17T02:11:25.218Z,4.30
2022-08-17T02:14:28.472Z,4.10
2022-08-17T02:17:31.906Z,3.53
2022-08-17T02:20:42.670Z,3.47
2022-08-17T02:23:49.461Z,3.22
2022-08-17T02:26:54.314Z,2.97
2022-08-17T02:29:57.660Z,4.15
2022-08-17T02:33:04.193Z,2.88
2022-08-17T02:36:10.073Z,3.22
2022-08-17T02:39:14.022Z,4.07
2022-08-17T02:42:18.806Z,2.80
2022-08-17T02:45:24.543Z,3.50
2022-08-17T02:48:31.104Z,3.33
2022-08-17T02:51:35.521Z,2.95
2022-08-17T02:54:41.031Z,2.70
2022-08-17T02:57:46.903Z,3.22
2022-08-17T03:00:50.305Z,3.15
2022-08-17T03:03:53.897Z,3.95
2022-08-17T03:06:57.214Z,3.55
2022-08-17T03:10:00.651Z,2.65
2022-08-17T03:13:05.646Z,3.13
2022-08-17T03:16:09.857Z,3.03
2022-08-17T03:19:13.219Z,2.95
2022-08-17T03:22:36.583Z,3.72
2022-08-17T03:25:43.419Z,3.40
2022-08-17T03:28:49.146Z,3.92
2022-08-17T03:34:33.515Z,3.28
2022-08-17T03:37:37.830Z,3.63
2022-08-17T03:40:56.361Z,3.30
2022-08-17T03:44:02.731Z,2.88
2022-08-17T03:47:23.805Z,3.65
2022-08-17T03:50:46.784Z,3.08
2022-08-17T03:54:09.469Z,3.33
2022-08-17T03:57:13.536Z,3.88
2022-08-17T04:00:17.101Z,3.35
2022-08-17T04:03:20.429Z,2.92
2022-08-17T04:06:25.164Z,3.50
2022-08-17T04:09:28.711Z,3.35
2022-08-17T04:12:44.807Z,3.95
2022-08-17T04:15:49.148Z,3.72
2022-08-17T04:18:52.633Z,4.80
2022-08-17T04:21:58.863Z,3.83
2022-08-17T04:25:05.369Z,3.63
2022-08-17T04:28:15.778Z,4.45
2022-08-17T04:31:19.663Z,3.80
2022-08-17T04:34:25.111Z,4.15
2022-08-17T04:37:29.715Z,3.22
2022-08-17T04:40:51.142Z,4.82
2022-08-17T04:43:58.239Z,3.63
2022-08-17T04:47:01.469Z,3.20
2022-08-17T04:50:05.062Z,4.05
2022-08-17T04:53:10.386Z,3.65
2022-08-17T04:56:16.954Z,3.40
2022-08-17T04:59:23.399Z,3.92
2022-08-17T05:02:26.823Z,4.05
2022-08-17T05:05:34.503Z,4.20
2022-08-17T05:11:44.987Z,4.03
2022-08-17T05:14:48.410Z,4.10
2022-08-17T05:17:51.914Z,4.15
2022-08-17T05:20:55.552Z,3.90
2022-08-17T05:24:00.549Z,3.67
2022-08-17T05:27:04.303Z,4.25
2022-08-17T05:30:10.749Z,4.43
2022-08-17T05:33:16.965Z,4.05
2022-08-17T05:36:41.763Z,4.57
2022-08-17T05:39:44.942Z,4.45
2022-08-17T05:42:48.709Z,4.65
2022-08-17T05:46:01.566Z,4.85
2022-08-17T05:49:08.324Z,4.72
2022-08-17T05:52:21.789Z,4.65
2022-08-17T05:55:35.850Z,3.95
2022-08-17T05:58:49.458Z,4.43
2022-08-17T06:02:02.982Z,3.08
2022-08-17T06:05:16.157Z,4.32
2022-08-17T06:08:28.384Z,3.72
2022-08-17T06:11:42.226Z,4.60
2022-08-17T06:15:02.561Z,5.25
2022-08-17T06:18:09.101Z,3.28
2022-08-17T06:21:16.643Z,3.38
2022-08-17T06:24:29.092Z,3.70
2022-08-17T06:27:39.354Z,4.65
2022-08-17T06:30:59.863Z,5.05
2022-08-17T06:34:07.631Z,4.57
2022-08-17T06:37:27.280Z,5.45
2022-08-17T06:40:55.274Z,4.57
2022-08-17T06:44:10.971Z,3.97
2022-08-17T06:47:28.196Z,4.45
2022-08-17T06:50:36.841Z,4.30
2022-08-17T06:53:46.448Z,4.30
2022-08-17T06:56:57.374Z,4.45
2022-08-17T07:00:07.457Z,4.82
2022-08-17T07:03:20.959Z,4.30
2022-08-17T07:06:29.114Z,5.95
2022-08-17T07:09:36.864Z,4.50
2022-08-17T07:12:44.269Z,3.97
2022-08-17T07:15:56.802Z,4.78
2022-08-17T07:19:00.782Z,4.15
2022-08-17T07:22:17.156Z,4.13
2022-08-17T07:25:21.405Z,5.22
2022-08-17T07:28:24.815Z,5.20
2022-08-17T07:31:33.523Z,4.97
2022-08-17T07:35:11.300Z,4.60
2022-08-17T07:38:25.185Z,2.72
2022-08-17T07:41:53.043Z,3.10
2022-08-17T07:44:57.948Z,3.15
2022-08-17T07:48:20.381Z,3.13
2022-08-17T07:51:29.583Z,2.53
2022-08-17T07:54:36.782Z,4.43
2022-08-17T07:57:40.308Z,4.13
2022-08-17T08:00:43.649Z,3.05
2022-08-17T08:03:52.574Z,3.00
2022-08-17T08:06:58.858Z,2.65
2022-08-17T08:10:08.549Z,2.80
2022-08-17T08:13:14.943Z,3.03
2022-08-17T08:16:29.277Z,3.00
2022-08-17T08:19:37.927Z,3.85
2022-08-17T08:22:50.354Z,2.25
2022-08-17T08:26:17.871Z,3.17
2022-08-17T08:29:40.023Z,3.00
2022-08-17T08:33:06.156Z,2.05
2022-08-17T08:37:16.028Z,1.70
2022-08-17T08:40:05.266Z,3.22
2022-08-17T08:43:23.102Z,2.90
2022-08-17T08:46:36.297Z,2.35
2022-08-17T08:50:03.962Z,2.97
2022-08-17T08:53:23.564Z,2.25
2022-08-17T08:56:35.938Z,2.45
2022-08-17T08:59:54.134Z,1.45
2022-08-17T09:03:20.062Z,2.33
2022-08-17T09:06:39.294Z,2.35
2022-08-17T09:09:59.032Z,2.40
2022-08-17T09:13:10.711Z,2.05
2022-08-17T09:16:22.007Z,2.17
2022-08-17T09:19:40.183Z,2.00
2022-08-17T09:22:46.636Z,2.45
2022-08-17T09:25:59.743Z,1.58
2022-08-17T09:29:08.703Z,1.60
2022-08-17T09:34:38.987Z,1.95
2022-08-17T09:37:55.440Z,1.90
2022-08-17T09:41:10.285Z,1.45
2022-08-17T09:44:23.943Z,1.85
2022-08-17T09:47:32.830Z,1.50
2022-08-17T09:50:55.384Z,1.50
2022-08-17T09:54:38.154Z,1.88
2022-08-17T09:57:55.540Z,1.60
2022-08-17T10:01:09.464Z,1.40
2022-08-17T10:04:29.685Z,1.77
2022-08-17T10:07:42.384Z,2.20
2022-08-17T10:10:56.736Z,1.92
2022-08-17T10:14:36.886Z,1.95
2022-08-17T10:17:40.335Z,1.70
2022-08-17T10:20:50.917Z,2.38
2022-08-17T10:24:23.067Z,2.45
2022-08-17T10:27:33.246Z,1.83
2022-08-17T10:30:46.411Z,2.20
2022-08-17T10:34:02.071Z,1.50
2022-08-17T10:37:16.336Z,2.30
2022-08-17T10:40:36.545Z,2.13
2022-08-17T10:44:38.308Z,1.58
2022-08-17T10:47:14.394Z,1.40
2022-08-17T10:50:46.063Z,2.25
2022-08-17T10:53:58.733Z,1.80
2022-08-17T10:57:05.133Z,1.77
2022-08-17T11:00:14.904Z,1.77
2022-08-17T11:03:22.164Z,2.00
2022-08-17T11:06:43.138Z,2.25
2022-08-17T11:10:07.719Z,2.33
2022-08-17T11:13:26.677Z,2.40
2022-08-17T11:16:47.999Z,2.20
2022-08-17T11:20:13.720Z,1.95
2022-08-17T11:23:34.687Z,1.70
2022-08-17T11:26:46.146Z,1.48
2022-08-17T11:29:58.204Z,1.92
2022-08-17T11:33:54.079Z,1.70
2022-08-17T11:37:22.368Z,2.38
2022-08-17T11:40:57.243Z,1.63
2022-08-17T11:44:19.674Z,1.42
2022-08-17T11:48:15.885Z,2.17
2022-08-17T11:51:35.040Z,1.88
2022-08-17T11:54:46.174Z,1.67
2022-08-17T11:58:01.795Z,1.90
2022-08-17T12:01:07.280Z,1.45
2022-08-17T12:04:27.834Z,2.45
2022-08-17T12:07:33.206Z,2.03
2022-08-17T12:10:41.038Z,1.80
2022-08-17T12:13:48.589Z,1.67
2022-08-17T12:17:07.095Z,1.67
2022-08-17T12:20:19.450Z,2.50
2022-08-17T12:23:35.298Z,1.95
2022-08-17T12:26:38.808Z,2.22
2022-08-17T12:29:45.144Z,1.90
2022-08-17T12:32:51.064Z,1.73
2022-08-17T12:36:03.262Z,1.70
2022-08-17T12:39:13.038Z,1.65
2022-08-17T12:42:25.367Z,1.70
2022-08-17T12:45:32.482Z,1.83
2022-08-17T12:48:37.887Z,1.67
2022-08-17T12:51:46.257Z,1.30
2022-08-17T12:54:54.484Z,1.42
2022-08-17T12:57:59.823Z,1.80
2022-08-17T13:01:08.774Z,1.20
2022-08-17T13:04:15.104Z,1.40
2022-08-17T13:07:37.602Z,1.73
2022-08-17T13:10:41.101Z,1.55
2022-08-17T13:13:46.459Z,1.60
2022-08-17T13:16:53.695Z,0.95
2022-08-17T13:19:57.420Z,1.77
2022-08-17T13:23:09.984Z,1.65
2022-08-17T13:26:17.187Z,2.03
2022-08-17T13:29:24.776Z,2.03
2022-08-17T13:32:43.985Z,2.03
2022-08-17T13:35:50.467Z,1.40
2022-08-17T13:39:08.301Z,1.35
2022-08-17T13:42:34.122Z,1.90
2022-08-17T13:46:09.322Z,2.20
2022-08-17T13:49:13.025Z,1.63
2022-08-17T13:52:36.298Z,1.80
2022-08-17T13:55:49.792Z,1.40
2022-08-17T13:58:57.938Z,1.60
2022-08-17T14:02:01.794Z,1.83
2022-08-17T14:05:06.202Z,1.75
2022-08-17T14:08:13.134Z,1.92
2022-08-17T14:11:18.895Z,1.70
2022-08-17T14:14:23.453Z,1.60
2022-08-17T14:17:28.990Z,1.63
2022-08-17T14:20:32.307Z,1.95
2022-08-17T14:23:35.918Z,1.80
2022-08-17T14:26:44.467Z,1.65
2022-08-17T14:29:48.628Z,2.03
2022-08-17T14:32:52.784Z,1.98
2022-08-17T14:35:57.663Z,1.95
2022-08-17T14:39:01.017Z,1.58
2022-08-17T14:42:05.750Z,1.75
2022-08-17T14:45:27.073Z,1.67
2022-08-17T14:48:38.377Z,1.55
2022-08-17T14:51:44.158Z,1.98
2022-08-17T14:54:48.362Z,1.80
2022-08-17T14:57:53.404Z,1.63
2022-08-17T15:00:57.258Z,1.88
2022-08-17T15:04:01.047Z,1.83
2022-08-17T15:07:06.444Z,2.08
2022-08-17T15:10:10.254Z,1.70
2022-08-17T15:13:21.109Z,2.22
2022-08-17T15:16:24.634Z,1.83
2022-08-17T15:19:28.222Z,0.90
2022-08-17T15:22:31.749Z,1.73
2022-08-17T15:25:35.073Z,1.20
2022-08-17T15:28:39.662Z,1.70
2022-08-17T15:34:33.373Z,1.92
2022-08-17T15:37:36.691Z,2.90
2022-08-17T15:40:43.739Z,1.90
2022-08-17T15:46:51.852Z,1.13
2022-08-17T15:50:00.009Z,1.63
2022-08-17T15:53:04.816Z,2.17
2022-08-17T15:56:08.748Z,1.85
2022-08-17T15:59:12.080Z,1.38
2022-08-17T16:03:15.301Z,1.50
2022-08-17T16:05:42.466Z,1.60
2022-08-17T16:08:46.072Z,1.45
2022-08-17T16:11:53.715Z,1.80
2022-08-17T16:14:58.976Z,1.52
2022-08-17T16:18:02.909Z,1.48
2022-08-17T16:21:31.286Z,1.55
2022-08-17T16:24:57.490Z,2.33
2022-08-17T16:28:01.240Z,1.88
2022-08-17T16:31:07.985Z,2.10
2022-08-17T16:34:17.946Z,2.17
2022-08-17T16:37:23.441Z,1.40
2022-08-17T16:40:31.317Z,1.85
2022-08-17T16:43:39.574Z,2.20
2022-08-17T16:46:45.677Z,1.95
2022-08-17T16:49:50.736Z,1.92
2022-08-17T16:53:04.758Z,2.22
2022-08-17T16:56:08.104Z,2.17
2022-08-17T16:59:30.429Z,1.90
2022-08-17T17:02:37.841Z,2.63
2022-08-17T17:05:59.893Z,1.60
2022-08-17T17:09:08.020Z,2.05
2022-08-17T17:12:18.097Z,1.50
2022-08-17T17:15:24.628Z,2.20
2022-08-17T17:18:40.218Z,1.90
2022-08-17T17:21:51.821Z,1.90
2022-08-17T17:25:07.369Z,1.35
2022-08-17T17:28:18.457Z,2.15
2022-08-17T17:31:26.346Z,2.53
2022-08-17T17:37:36.712Z,1.40
2022-08-17T17:40:43.752Z,1.38
2022-08-17T17:43:50.153Z,1.52
2022-08-17T17:46:57.745Z,1.73
2022-08-17T17:50:02.457Z,1.80
2022-08-17T17:53:10.406Z,2.00
2022-08-17T17:56:43.065Z,2.08
2022-08-17T17:59:55.973Z,1.80
2022-08-17T18:03:12.398Z,2.20
2022-08-17T18:06:27.448Z,1.85
2022-08-17T18:09:53.771Z,2.25
2022-08-17T18:13:16.484Z,1.58
2022-08-17T18:16:20.010Z,1.90
2022-08-17T18:19:26.068Z,1.75
2022-08-17T18:22:31.008Z,1.90
2022-08-17T18:25:44.510Z,1.80
2022-08-17T18:28:51.846Z,1.88
2022-08-17T18:32:17.485Z,2.50
2022-08-17T18:35:30.163Z,1.45
2022-08-17T18:38:35.097Z,1.33
2022-08-17T18:41:42.689Z,1.65
2022-08-17T18:44:50.610Z,1.83
2022-08-17T18:47:58.956Z,1.92
2022-08-17T18:51:05.927Z,2.45
2022-08-17T18:54:17.262Z,2.30
2022-08-17T18:57:31.084Z,1.85
2022-08-17T19:00:39.462Z,2.53
2022-08-17T19:03:44.170Z,1.98
2022-08-17T19:06:47.350Z,2.17
2022-08-17T19:09:54.892Z,1.60
2022-08-17T19:16:14.921Z,1.98
2022-08-17T19:19:24.684Z,2.20
2022-08-17T19:22:35.569Z,1.92
2022-08-17T19:25:45.684Z,2.00
2022-08-17T19:28:54.558Z,2.13
2022-08-17T19:32:00.930Z,1.85
2022-08-17T19:35:07.050Z,2.25
2022-08-17T19:38:21.832Z,2.25
2022-08-17T19:41:37.470Z,1.67
2022-08-17T19:44:58.499Z,1.88
2022-08-17T19:48:15.599Z,1.58
2022-08-17T19:51:26.308Z,1.63
2022-08-17T19:54:36.561Z,1.85
2022-08-17T19:57:50.414Z,1.80
2022-08-17T20:00:55.401Z,2.13
2022-08-17T20:04:08.095Z,1.73
2022-08-17T20:07:16.661Z,1.65
2022-08-17T20:10:27.970Z,2.28
2022-08-17T20:13:36.268Z,1.77
2022-08-17T20:16:39.721Z,2.00
2022-08-17T20:19:52.093Z,2.22
2022-08-17T20:23:03.712Z,2.25
2022-08-17T20:26:19.251Z,2.60
2022-08-17T20:29:37.194Z,1.95
2022-08-17T20:32:55.194Z,2.33
2022-08-17T20:36:15.256Z,2.00
2022-08-17T20:39:33.606Z,2.25
2022-08-17T20:42:39.008Z,2.03
2022-08-17T20:46:14.047Z,2.35
2022-08-17T20:49:27.069Z,2.50
2022-08-17T20:52:57.285Z,2.28
2022-08-17T20:56:00.750Z,2.90
2022-08-17T20:59:04.439Z,2.75
2022-08-17T21:02:18.295Z,1.98
2022-08-17T21:05:34.392Z,2.50
2022-08-17T21:08:45.874Z,2.53
2022-08-17T21:12:03.711Z,2.65
2022-08-17T21:15:21.936Z,1.98
2022-08-17T21:18:34.124Z,2.40
2022-08-17T21:21:48.522Z,2.53
2022-08-17T21:25:04.864Z,2.38
2022-08-17T21:28:17.252Z,3.05
2022-08-17T21:34:34.945Z,2.58
2022-08-17T21:37:41.844Z,2.30
2022-08-17T21:40:47.065Z,2.67
2022-08-17T21:43:52.914Z,2.53
2022-08-17T21:47:13.854Z,2.40
2022-08-17T21:50:21.820Z,1.90
2022-08-17T21:53:33.063Z,2.90
2022-08-17T21:56:41.596Z,2.25
2022-08-17T21:59:45.249Z,2.05
2022-08-17T22:02:55.853Z,2.40
2022-08-17T22:06:20.000Z,2.97
2022-08-17T22:09:26.341Z,2.55
2022-08-17T22:12:31.340Z,1.95
2022-08-17T22:15:39.944Z,2.60
2022-08-17T22:18:44.666Z,2.58
2022-08-17T22:21:49.457Z,2.42
2022-08-17T22:24:56.863Z,2.00
2022-08-17T22:28:03.384Z,2.83
2022-08-17T22:31:09.060Z,2.25
2022-08-17T22:34:15.813Z,1.92
2022-08-17T22:37:29.893Z,1.80
2022-08-17T22:40:35.423Z,2.33
2022-08-17T22:43:43.694Z,2.20
2022-08-17T22:47:00.108Z,2.08
2022-08-17T22:50:06.336Z,2.05
2022-08-17T22:53:35.588Z,2.33
2022-08-17T22:56:57.384Z,2.60
2022-08-17T23:00:03.464Z,3.30
2022-08-17T23:03:12.459Z,2.88
2022-08-17T23:06:15.910Z,2.40
2022-08-17T23:09:20.486Z,2.03
2022-08-17T23:12:27.637Z,2.22
2022-08-17T23:15:33.899Z,2.60
2022-08-17T23:18:37.837Z,2.50
2022-08-17T23:21:41.318Z,2.55
2022-08-17T23:24:49.765Z,1.70
2022-08-17T23:27:53.329Z,2.28
2022-08-17T23:30:57.007Z,1.83
2022-08-17T23:34:00.605Z,3.03
2022-08-17T23:37:04.493Z,1.92
2022-08-17T23:40:10.594Z,2.35
2022-08-17T23:43:24.824Z,2.03
2022-08-17T23:46:31.049Z,2.10
2022-08-17T23:49:35.716Z,2.40
2022-08-17T23:52:41.203Z,1.58
2022-08-17T23:55:45.942Z,1.70
2022-08-17T23:59:07.289Z,2.17
